Forside
METAR-TAF:

METAR-TAF

Lufthavne :

Cloncurry, Australien

Breddekreds: 20-40-07S, længdekreds: 140-30-16E, højde: 188 m

Aktuelle vejr

Denne rapport blev lavet for 26 minutter siden, kl. 00:00 UTC
Vind 7 kt fra nordnordvest
Temperatur 36°C
Fugtighed 9%
Tryk 1013 hPa

METAR: YCCY 200000Z AUTO 33007KT //// // ////// 36/M02 Q1013

Tid: 10:26 (00:26 UTC)


TAF: fraværende

Vejrobservationer og prognoser fra mere end 4000 lufthavne (METAR og TAF).

De gule og røde prikker repræsenterer de meteorologiske stationer.

Flyt musen over at se navnet på stationen.

Så klik over at se vejr observationer og prognoser.

At skifte det kort: Klik på de grønne knapper med et sort kors for at zoome ind; på den grønne knap med en bindestreg for at zoome ud; eller på de grønne pile for tilstødende kort.


METAR-TAF: